Latest Weather Observations for Red Rocks Point

IDW60801

Issued at 8:35 pm WST Thursday 24 April 2014 (issued every 30 minutes, with the page automatically refreshed every 10 minutes)

About weather observations | Map of weather stations | Latest weather observations for WA | Other Formats
Station Details ID: 011053 Name: RED ROCKS POINT Lat: -32.20 Lon: 127.53 Height: 3.1 m
Data from the previous 72 hours. | See also: Recent months for locations in Western Australia
Date/Time
WST
Temp
°C
App
Temp
°C
Dew
Point
Rel
Hum
%
Delta-T
°C
Wind Press
QNH
hPa
Press
MSL
hPa
Rain
since 9 am
mm
Dir
 
Spd
km/h
Gust
km/h
Spd
kts
Gust
kts
24/08:30pm 18.8 16.0 14.3 75 2.6 NE 22 30 12 16 1014.0 - 0.0
24/08:00pm 18.6 15.8 14.3 76 2.5 NE 22 30 12 16 1014.3 - 0.0
24/07:30pm 18.8 15.5 15.1 79 2.2 ENE 26 33 14 18 1013.9 - 0.0
24/07:00pm 19.3 15.6 16.0 81 2.0 ENE 30 37 16 20 1013.9 - 0.0
24/06:30pm 19.1 16.7 15.4 79 2.2 NE 22 28 12 15 1014.2 - 0.0
24/06:00pm 19.9 15.4 16.3 80 2.2 ENE 35 41 19 22 1014.2 1014.2 0.0
24/05:30pm 19.9 14.5 16.0 78 2.3 ENE 39 44 21 24 1013.8 - 0.0
24/05:00pm 20.2 15.6 16.2 78 2.4 E 35 43 19 23 1013.8 - 0.0
24/04:30pm 20.1 15.4 15.9 77 2.5 ENE 35 41 19 22 1013.8 - 0.0
24/04:00pm 20.2 15.4 15.6 75 2.7 E 35 41 19 22 1013.8 - 0.0
24/03:30pm 20.5 15.7 15.7 74 2.9 E 35 41 19 22 1013.9 - 0.0
24/03:00pm 20.5 15.6 15.3 72 3.1 E 35 41 19 22 1014.1 1014.1 0.0
24/02:30pm 20.6 16.1 15.4 72 3.1 E 33 41 18 22 1014.1 - 0.0
24/02:00pm 20.8 16.5 15.4 71 3.2 E 32 35 17 19 1014.5 - 0.0
24/01:30pm 21.1 16.9 15.6 71 3.3 E 32 37 17 20 1014.7 - 0.0
24/01:00pm 21.1 16.9 14.7 67 3.8 E 30 35 16 19 1015.1 - 0.0
24/12:30pm 21.0 16.3 14.4 66 3.9 E 32 33 17 18 1015.5 - 0.0
24/12:00pm 21.1 17.4 15.0 68 3.6 E 28 33 15 18 1016.3 1016.3 0.0
24/11:30am 21.2 18.0 15.3 69 3.5 E 26 32 14 17 1016.9 - 0.0
24/11:00am 21.1 17.5 15.2 69 3.5 E 28 30 15 16 1017.6 - 0.0
24/10:30am 21.0 18.1 15.1 69 3.5 E 24 28 13 15 1018.1 - 0.0
24/10:00am 20.7 17.8 14.1 66 3.8 E 22 28 12 15 1018.3 - 0.0
24/09:30am 20.6 17.9 14.5 68 3.6 E 22 26 12 14 1018.7 - 0.0
24/09:00am 20.4 17.9 14.1 67 3.6 ENE 20 28 11 15 1018.9 1018.9 0.0
24/08:30am 19.7 18.2 14.1 70 3.2 NNE 15 22 8 12 1019.2 - 0.0
24/08:00am 17.3 15.9 14.4 83 1.7 NNE 15 22 8 12 1019.4 - 0.0
24/07:30am 15.0 13.0 13.9 93 0.6 N 17 20 9 11 1019.3 - 0.0
24/07:00am 13.2 11.1 12.4 95 0.4 N 15 19 8 10 1018.9 - 0.0
24/06:30am 12.0 9.1 11.1 94 0.5 N 17 20 9 11 1018.4 - 0.0
24/06:00am 12.3 9.5 11.4 94 0.5 N 17 20 9 11 1018.2 1018.2 0.0
24/05:30am 12.2 9.7 11.1 93 0.6 N 15 17 8 9 1018.0 - 0.0
24/05:00am 12.4 10.0 11.3 93 0.6 N 15 17 8 9 1017.8 - 0.0
24/04:30am 12.3 9.8 11.2 93 0.6 N 15 17 8 9 1017.5 - 0.0
24/04:00am 12.6 10.5 11.3 92 0.7 N 13 17 7 9 1017.4 - 0.0
24/03:30am 13.0 11.1 11.7 92 0.7 N 13 17 7 9 1017.5 - 0.0
24/03:00am 12.7 10.3 11.3 91 0.7 N 15 17 8 9 1017.4 1017.4 0.0
24/02:30am 12.8 13.1 11.0 89 0.9 CALM 0 0 0 0 1017.5 - 0.0
24/02:00am 13.3 12.4 11.5 89 1.0 N 7 9 4 5 1017.6 - 0.0
24/01:30am 13.1 13.5 11.2 88 1.0 CALM 0 0 0 0 1017.7 - 0.0
24/01:00am 13.3 12.4 11.2 87 1.1 N 7 11 4 6 1017.9 - 0.0
24/12:30am 13.8 12.6 11.5 86 1.2 N 9 9 5 5 1018.0 - 0.0
24/12:00am 13.9 12.6 11.4 85 1.3 N 9 11 5 6 1018.0 1018.0 0.0
 
Date/Time
WST
Temp
°C
App
Temp
°C
Dew
Point
Rel
Hum
%
Delta-T
°C
Wind Press
QNH
hPa
Press
MSL
hPa
Rain
since 9 am
mm
Dir
 
Spd
km/h
Gust
km/h
Spd
kts
Gust
kts
23/11:30pm 13.8 12.5 11.3 85 1.3 N 9 11 5 6 1017.9 - 0.0
23/11:00pm 13.4 12.0 10.8 84 1.4 N 9 11 5 6 1017.9 - 0.0
23/10:30pm 13.6 12.5 10.8 83 1.5 N 7 9 4 5 1018.0 - 0.0
23/10:00pm 13.8 12.4 10.8 82 1.6 N 9 11 5 6 1018.1 - 0.0
23/09:30pm 14.0 12.2 9.6 75 2.3 NNW 9 11 5 6 1018.1 - 0.0
23/09:21pm 14.6 12.5 9.6 72 2.6 N 11 13 6 7 1018.2 - 0.0
23/09:00pm 19.6 17.8 14.4 72 3.0 E 17 20 9 11 1018.1 1018.1 0.0
23/08:30pm 19.6 17.8 14.4 72 3.0 ESE 17 19 9 10 1017.9 - 0.0
23/08:00pm 19.5 17.1 13.9 70 3.2 ESE 19 20 10 11 1017.6 - 0.0
23/07:30pm 19.7 17.8 14.1 70 3.2 SE 17 20 9 11 1017.4 - 0.0
23/07:00pm 19.7 17.3 13.9 69 3.3 SE 19 20 10 11 1017.2 - 0.0
23/06:30pm 19.9 17.6 13.1 65 3.9 SSE 17 19 9 10 1017.1 - 0.0
23/06:00pm 19.7 17.0 12.9 65 3.8 SSE 19 20 10 11 1017.0 1017.0 0.0
23/05:30pm 19.7 17.0 12.9 65 3.8 S 19 20 10 11 1016.9 - 0.0
23/05:00pm 19.4 17.0 11.4 60 4.4 SSW 15 19 8 10 1016.5 - 0.0
23/04:30pm 20.0 18.0 11.5 58 4.7 SSW 13 19 7 10 1016.3 - 0.0
23/04:00pm 21.1 18.4 11.7 55 5.2 SSW 17 20 9 11 1016.0 - 0.0
23/03:30pm 21.7 19.0 11.7 53 5.6 SSW 17 24 9 13 1015.8 - 0.0
23/03:00pm 22.1 19.9 12.1 53 5.6 S 15 22 8 12 1015.7 1015.7 0.0
23/02:30pm 21.8 19.6 12.1 54 5.5 S 15 17 8 9 1015.6 - 0.0
23/02:00pm 22.5 19.9 11.9 51 6.0 S 17 19 9 10 1015.6 - 0.0
23/01:30pm 22.7 19.7 12.0 50 6.0 S 19 20 10 11 1015.5 - 0.0
23/01:00pm 22.9 20.0 12.2 51 6.1 S 19 20 10 11 1015.6 - 0.0
23/12:30pm 22.8 19.6 11.8 50 6.2 S 20 22 11 12 1015.9 - 0.0
23/12:00pm 22.7 19.3 11.1 48 6.4 S 20 22 11 12 1016.3 1016.3 0.0
23/11:30am 23.5 21.4 12.5 50 6.3 SSE 15 17 8 9 1016.7 - 0.0
23/11:00am 23.6 22.0 11.6 47 6.8 S 11 15 6 8 1017.1 - 0.0
23/10:30am 23.5 21.9 8.8 39 7.9 NW 7 15 4 8 1017.4 - 0.0
23/10:00am 23.1 21.4 9.8 43 7.2 NNW 9 17 5 9 1017.8 - 0.0
23/09:30am 21.7 19.2 11.1 51 5.9 N 15 20 8 11 1018.2 - 0.0
23/09:00am 20.5 18.2 11.7 57 4.9 N 15 22 8 12 1018.4 1018.4 0.0
23/08:30am 18.6 15.8 11.4 63 3.9 N 17 24 9 13 1018.5 - 0.0
23/08:00am 16.9 15.0 11.8 72 2.8 N 13 19 7 10 1018.7 - 0.0
23/07:30am 14.3 11.9 12.5 89 1.0 N 17 22 9 12 1018.6 - 0.0
23/07:00am 12.5 9.8 11.7 95 0.4 N 17 22 9 12 1018.3 - 0.0
23/06:30am 11.5 8.6 10.9 96 0.3 N 17 22 9 12 1018.1 - 0.0
23/06:00am 11.1 8.1 10.5 96 0.3 N 17 20 9 11 1018.2 1018.2 0.0
23/05:30am 11.1 8.4 10.5 96 0.3 N 15 19 8 10 1017.6 - 0.0
23/05:00am 10.3 7.4 9.5 95 0.4 N 15 17 8 9 1018.0 - 0.0
23/04:30am 10.3 7.0 9.5 95 0.4 N 17 19 9 10 1018.3 - 0.0
23/04:00am 11.1 8.4 10.3 95 0.4 NNW 15 17 8 9 1018.2 - 0.0
23/03:30am 11.0 8.3 10.2 95 0.4 NNW 15 17 8 9 1018.3 - 0.0
23/03:00am 11.0 8.2 10.1 94 0.5 NNW 15 17 8 9 1018.4 1018.4 0.0
23/02:30am 11.0 7.8 10.1 94 0.5 NNW 17 20 9 11 1018.4 - 0.0
23/02:00am 10.9 7.6 9.7 92 0.6 N 17 19 9 10 1018.5 - 0.0
23/01:30am 11.6 8.5 10.3 92 0.7 N 17 19 9 10 1018.4 - 0.0
23/01:00am 11.7 8.9 9.9 89 0.9 N 15 17 8 9 1018.4 - 0.0
23/12:30am 12.4 10.1 10.5 88 1.0 N 13 17 7 9 1018.5 - 0.0
23/12:00am 13.1 11.2 10.6 85 1.3 N 11 13 6 7 1018.6 1018.6 0.0
 
Date/Time
WST
Temp
°C
App
Temp
°C
Dew
Point
Rel
Hum
%
Delta-T
°C
Wind Press
QNH
hPa
Press
MSL
hPa
Rain
since 9 am
mm
Dir
 
Spd
km/h
Gust
km/h
Spd
kts
Gust
kts
22/11:30pm 14.5 13.0 10.7 78 2.0 N 9 11 5 6 1018.8 - 0.0
22/11:00pm 17.5 16.0 13.0 75 2.5 E 13 15 7 8 1018.9 - 0.0
22/10:30pm 17.8 16.4 13.3 75 2.5 E 13 19 7 10 1019.3 - 0.0
22/10:00pm 17.5 15.8 12.6 73 2.7 SE 13 15 7 8 1019.7 - 0.0
22/09:30pm 17.7 16.1 12.8 73 2.7 SE 13 15 7 8 1020.0 - 0.0
22/09:00pm 17.7 15.7 12.8 73 2.7 SE 15 19 8 10 1020.2 1020.2 0.0
22/08:30pm 17.7 15.7 12.8 73 2.7 SSE 15 19 8 10 1020.3 - 0.0
22/08:00pm 17.7 15.3 12.8 73 2.7 SE 17 20 9 11 1020.3 - 0.0
22/07:30pm 17.8 15.5 12.9 73 2.7 SE 17 20 9 11 1020.2 - 0.0
22/07:00pm 17.9 15.3 13.2 74 2.6 SSE 19 22 10 12 1020.2 - 0.0
22/06:30pm 17.8 15.0 12.7 72 2.8 SSE 19 24 10 13 1020.1 - 0.0
22/06:00pm 17.9 15.6 13.0 73 2.7 SSE 17 22 9 12 1019.9 1019.9 0.0
22/05:30pm 17.9 15.6 13.0 73 2.7 SSE 17 22 9 12 1019.7 - 0.0
22/05:00pm 18.2 15.6 13.3 73 2.8 SSE 19 22 10 12 1019.4 - 0.0
22/04:30pm 18.4 16.1 13.0 71 3.0 SSE 17 20 9 11 1019.3 - 0.0
22/04:00pm 19.1 17.0 13.5 70 3.2 SSE 17 20 9 11 1019.2 - 0.0
22/03:30pm 19.3 16.6 13.0 67 3.6 SSE 19 24 10 13 1019.2 - 0.0
22/03:00pm 19.6 17.1 13.5 68 3.5 SSE 19 22 10 12 1019.3 1019.3 0.0
22/02:30pm 19.9 17.3 13.1 65 3.9 SSE 19 24 10 13 1019.3 - 0.0
22/02:00pm 20.3 17.7 13.7 66 3.8 S 20 24 11 13 1019.3 - 0.0
22/01:30pm 20.7 18.3 13.9 65 3.9 S 19 22 10 12 1019.4 - 0.0
22/01:00pm 20.5 17.8 13.5 64 4.0 S 20 24 11 13 1019.4 - 0.0
22/12:30pm 20.3 17.6 13.5 65 3.9 S 20 26 11 14 1019.5 - 0.0
22/12:00pm 21.1 18.3 13.3 61 4.5 S 20 26 11 14 1019.9 1019.9 0.0
22/11:30am 21.4 18.8 13.1 59 4.7 S 19 24 10 13 1020.5 - 0.0
22/11:00am 21.2 18.4 12.6 58 4.9 S 19 22 10 12 1020.7 - 0.0
22/10:30am 20.6 18.2 12.6 60 4.5 S 17 20 9 11 1021.0 - 0.0
22/10:00am 21.1 18.8 13.0 60 4.6 S 17 20 9 11 1021.2 - 0.0
22/09:30am 20.9 18.4 13.4 62 4.3 S 19 24 10 13 1021.3 - 0.0
22/09:00am 19.8 16.9 13.0 65 3.8 S 20 24 11 13 1021.3 1021.3 0.2
22/08:30am 19.9 17.2 13.6 67 3.6 S 20 26 11 14 1021.2 - 0.2
22/08:00am 19.0 16.0 13.6 71 3.1 S 22 26 12 14 1021.0 - 0.2
22/07:30am 18.8 15.9 13.9 73 2.8 SSE 22 28 12 15 1020.8 - 0.2
22/07:00am 18.1 15.4 12.8 71 3.0 S 19 24 10 13 1020.4 - 0.2
22/06:30am 17.9 14.5 12.6 71 2.9 S 22 28 12 15 1020.0 - 0.2
22/06:00am 17.8 14.2 13.1 74 2.6 S 24 32 13 17 1019.8 1019.8 0.2
22/05:30am 17.8 14.2 13.1 74 2.6 S 24 30 13 16 1019.5 - 0.2
22/05:00am 17.7 13.6 12.6 72 2.8 S 26 32 14 17 1019.4 - 0.2
22/04:30am 17.5 13.8 12.6 73 2.7 SSW 24 32 13 17 1019.2 - 0.2
22/04:00am 17.3 13.6 12.8 75 2.5 S 24 32 13 17 1019.0 - 0.2
22/03:30am 17.4 13.1 13.1 76 2.4 S 28 33 15 18 1018.7 - 0.2
22/03:00am 17.3 14.1 13.0 76 2.4 SSW 22 28 12 15 1018.7 1018.7 0.2
22/02:30am 17.1 14.1 12.4 74 2.6 SSW 20 28 11 15 1018.6 - 0.2
22/02:00am 17.5 14.5 13.8 79 2.1 SSW 22 33 12 18 1018.6 - 0.2
22/01:30am 17.0 14.2 13.3 79 2.1 SSW 20 26 11 14 1018.6 - 0.2
22/01:00am 17.6 15.0 13.9 79 2.1 SW 20 32 11 17 1018.8 - 0.2
22/12:30am 17.3 14.6 13.0 76 2.4 SW 19 28 10 15 1018.8 - 0.2
22/12:00am 17.4 13.9 12.3 72 2.8 SW 22 32 12 17 1018.6 1018.6 0.2
 
Date/Time
WST
Temp
°C
App
Temp
°C
Dew
Point
Rel
Hum
%
Delta-T
°C
Wind Press
QNH
hPa
Press
MSL
hPa
Rain
since 9 am
mm
Dir
 
Spd
km/h
Gust
km/h
Spd
kts
Gust
kts
21/11:30pm 17.9 15.6 13.0 73 2.7 SW 17 24 9 13 1018.5 - 0.2
21/11:00pm 17.6 14.8 12.5 72 2.8 SW 19 26 10 14 1018.4 - 0.2
21/10:30pm 17.7 14.8 12.8 73 2.7 SW 20 32 11 17 1018.4 - 0.2
21/10:00pm 17.6 14.7 12.9 74 2.6 SW 20 28 11 15 1018.5 - 0.2
21/09:30pm 18.1 14.2 13.4 74 2.7 SW 26 35 14 19 1018.6 - 0.2
21/09:00pm 17.7 14.9 14.4 81 1.9 WSW 22 35 12 19 1018.6 1018.6 0.2

Other Formats:

Comma delimited format used in spreadsheet applications
http://www.bom.gov.au/fwo/IDW60801/IDW60801.94644.axf

JavaScript Object Notation format (JSON) in row-major order
http://www.bom.gov.au/fwo/IDW60801/IDW60801.94644.json